createdAt,value
2022-07-29T00:00:47.652Z,20.50
2022-07-29T00:01:52.517Z,20.41
2022-07-29T00:02:56.094Z,20.24
2022-07-29T00:03:59.585Z,20.17
2022-07-29T00:05:07.440Z,20.16
2022-07-29T00:06:13.632Z,20.11
2022-07-29T00:07:18.734Z,20.03
2022-07-29T00:08:22.047Z,20.08
2022-07-29T00:09:30.685Z,20.01
2022-07-29T00:10:35.144Z,20.12
2022-07-29T00:11:39.376Z,20.12
2022-07-29T00:12:43.056Z,20.06
2022-07-29T00:13:50.780Z,20.10
2022-07-29T00:14:54.526Z,20.05
2022-07-29T00:15:58.047Z,20.05
2022-07-29T00:17:03.386Z,20.07
2022-07-29T00:18:10.410Z,20.11
2022-07-29T00:19:15.962Z,20.09
2022-07-29T00:20:19.622Z,20.02
2022-07-29T00:21:24.400Z,19.97
2022-07-29T00:22:30.245Z,19.85
2022-07-29T00:23:36.817Z,19.75
2022-07-29T00:24:45.186Z,19.71
2022-07-29T00:25:48.870Z,19.72
2022-07-29T00:26:52.824Z,19.69
2022-07-29T00:53:37.365Z,19.85
2022-07-29T00:54:44.483Z,19.84
2022-07-29T00:55:47.518Z,19.85
2022-07-29T00:56:51.810Z,19.90
2022-07-29T00:57:55.976Z,19.90
2022-07-29T00:59:00.733Z,19.92
2022-07-29T01:00:13.470Z,19.96
2022-07-29T01:01:17.006Z,19.96
2022-07-29T01:02:19.803Z,19.94
2022-07-29T01:03:23.711Z,19.88
2022-07-29T01:04:27.414Z,19.90
2022-07-29T01:05:50.729Z,19.91
2022-07-29T01:06:39.343Z,19.97
2022-07-29T01:07:46.334Z,19.99
2022-07-29T01:08:55.078Z,20.01
2022-07-29T01:10:02.801Z,20.03
2022-07-29T01:11:06.341Z,20.00
2022-07-29T01:12:11.834Z,20.02
2022-07-29T01:13:24.110Z,20.00
2022-07-29T01:14:36.282Z,19.93
2022-07-29T01:15:48.555Z,19.86
2022-07-29T01:16:54.951Z,19.80
2022-07-29T01:18:05.514Z,19.83
2022-07-29T01:21:03.443Z,19.94
2022-07-29T01:22:44.654Z,19.88
2022-07-29T01:24:15.558Z,19.93
2022-07-29T01:25:45.788Z,19.84
2022-07-29T01:27:18.219Z,19.81
2022-07-29T01:28:42.133Z,19.85
2022-07-29T01:29:58.840Z,19.90
2022-07-29T01:31:06.732Z,19.88
2022-07-29T01:33:55.246Z,19.87
2022-07-29T01:35:24.058Z,19.72
2022-07-29T01:36:33.239Z,19.67
2022-07-29T01:37:47.623Z,19.63
2022-07-29T01:39:00.344Z,19.54
2022-07-29T01:40:07.419Z,19.47
2022-07-29T01:41:14.743Z,19.40
2022-07-29T01:42:28.198Z,19.33
2022-07-29T01:43:41.725Z,19.28
2022-07-29T01:45:20.117Z,19.20
2022-07-29T01:46:33.573Z,19.15
2022-07-29T01:47:40.729Z,18.93
2022-07-29T01:48:50.506Z,18.97
2022-07-29T01:49:58.263Z,18.89
2022-07-29T01:51:11.452Z,18.79
2022-07-29T01:52:30.553Z,18.90
2022-07-29T01:53:43.140Z,18.93
2022-07-29T01:54:58.625Z,18.98
2022-07-29T01:56:04.581Z,18.99
2022-07-29T01:57:11.142Z,19.02
2022-07-29T01:58:20.979Z,19.09
2022-07-29T01:59:27.041Z,19.15
2022-07-29T02:00:34.952Z,19.14
2022-07-29T02:01:43.410Z,19.12
2022-07-29T02:02:50.269Z,19.10
2022-07-29T02:03:56.219Z,19.10
2022-07-29T02:05:03.676Z,19.01
2022-07-29T02:06:10.752Z,19.06
2022-07-29T02:07:17.598Z,19.08
2022-07-29T02:08:22.416Z,19.05
2022-07-29T02:09:32.058Z,18.90
2022-07-29T02:10:37.886Z,18.89
2022-07-29T02:11:43.837Z,18.81
2022-07-29T02:12:50.719Z,18.72
2022-07-29T02:13:57.896Z,18.65
2022-07-29T02:15:03.857Z,18.60
2022-07-29T02:16:11.223Z,18.55
2022-07-29T02:17:17.156Z,18.57
2022-07-29T02:18:22.998Z,18.55
2022-07-29T02:19:28.705Z,18.57
2022-07-29T02:20:35.122Z,18.62
2022-07-29T02:21:40.661Z,18.75
2022-07-29T02:22:46.692Z,18.78
2022-07-29T02:23:54.690Z,18.83
2022-07-29T02:25:00.979Z,18.86
2022-07-29T02:26:05.217Z,18.88
2022-07-29T02:27:14.129Z,18.95
2022-07-29T02:28:20.701Z,18.95
2022-07-29T02:29:28.227Z,18.87
2022-07-29T02:30:33.561Z,18.89
2022-07-29T02:31:39.309Z,18.82
2022-07-29T02:32:43.809Z,18.76
2022-07-29T02:33:47.913Z,18.74
2022-07-29T02:34:53.001Z,18.72
2022-07-29T02:35:57.687Z,18.69
2022-07-29T02:37:04.861Z,18.69
2022-07-29T02:38:29.797Z,18.66
2022-07-29T02:39:34.216Z,18.63
2022-07-29T02:40:39.305Z,18.60
2022-07-29T02:41:57.327Z,18.66
2022-07-29T02:43:03.349Z,18.65
2022-07-29T02:44:21.594Z,18.72
2022-07-29T02:45:25.554Z,18.76
2022-07-29T02:46:32.122Z,18.78
2022-07-29T02:47:41.906Z,18.77
2022-07-29T02:48:49.789Z,18.85
2022-07-29T02:49:56.811Z,18.89
2022-07-29T02:51:12.378Z,18.95
2022-07-29T02:53:40.788Z,19.18
2022-07-29T02:54:46.996Z,19.20
2022-07-29T02:56:04.835Z,19.24
2022-07-29T02:57:31.237Z,19.30
2022-07-29T02:58:44.644Z,19.35
2022-07-29T02:59:51.391Z,19.45
2022-07-29T03:00:57.544Z,19.52
2022-07-29T03:02:12.962Z,19.59
2022-07-29T03:03:18.811Z,19.63
2022-07-29T03:04:31.071Z,19.61
2022-07-29T03:05:37.996Z,19.68
2022-07-29T03:06:46.466Z,19.73
2022-07-29T03:07:58.043Z,19.78
2022-07-29T03:09:01.389Z,19.85
2022-07-29T03:10:13.763Z,19.96
2022-07-29T03:11:18.620Z,20.00
2022-07-29T03:12:23.570Z,20.10
2022-07-29T03:13:29.507Z,20.21
2022-07-29T03:14:36.060Z,20.30
2022-07-29T03:15:41.700Z,20.33
2022-07-29T03:16:45.666Z,20.36
2022-07-29T03:17:52.730Z,20.32
2022-07-29T03:18:57.268Z,20.34
2022-07-29T03:20:01.506Z,20.33
2022-07-29T03:21:13.078Z,20.20
2022-07-29T03:22:17.045Z,20.10
2022-07-29T03:23:25.439Z,20.06
2022-07-29T03:24:33.012Z,20.01
2022-07-29T03:25:38.250Z,20.06
2022-07-29T03:26:42.299Z,20.13
2022-07-29T03:27:46.302Z,20.20
2022-07-29T03:28:50.223Z,20.28
2022-07-29T03:29:54.845Z,20.39
2022-07-29T03:31:01.728Z,20.43
2022-07-29T03:32:08.669Z,20.49
2022-07-29T03:33:13.783Z,20.49
2022-07-29T03:34:18.075Z,20.54
2022-07-29T03:35:22.188Z,20.58
2022-07-29T03:36:30.116Z,20.64
2022-07-29T03:37:38.452Z,20.67
2022-07-29T03:38:45.841Z,20.67
2022-07-29T03:39:53.402Z,20.65
2022-07-29T03:41:01.931Z,20.71
2022-07-29T03:42:08.330Z,20.75
2022-07-29T03:43:17.779Z,20.80
2022-07-29T03:44:24.469Z,20.85
2022-07-29T03:45:32.728Z,20.94
2022-07-29T03:46:47.397Z,20.99
2022-07-29T03:47:59.950Z,20.95
2022-07-29T03:49:02.837Z,20.99
2022-07-29T03:50:14.519Z,20.98
2022-07-29T03:51:18.733Z,20.98
2022-07-29T03:52:24.500Z,20.93
2022-07-29T03:53:27.598Z,21.00
2022-07-29T03:54:32.092Z,21.05
2022-07-29T03:55:44.905Z,21.06
2022-07-29T03:56:51.194Z,21.02
2022-07-29T03:57:57.038Z,20.98
2022-07-29T03:59:02.900Z,21.01
2022-07-29T04:00:08.345Z,20.96
2022-07-29T04:01:13.877Z,21.03
2022-07-29T04:02:22.324Z,21.08
2022-07-29T04:03:23.797Z,21.11
2022-07-29T04:04:29.259Z,21.12
2022-07-29T04:06:48.560Z,21.35
2022-07-29T04:07:52.977Z,21.31
2022-07-29T04:09:00.196Z,21.38
2022-07-29T04:10:04.300Z,21.41
2022-07-29T04:11:08.193Z,21.50
2022-07-29T04:12:12.261Z,21.62
2022-07-29T04:13:15.931Z,21.68
2022-07-29T04:14:23.937Z,21.69
2022-07-29T04:15:30.947Z,21.79
2022-07-29T04:16:35.230Z,21.81
2022-07-29T04:17:40.979Z,21.88
2022-07-29T04:18:43.801Z,21.87
2022-07-29T04:19:51.024Z,22.03
2022-07-29T04:20:54.602Z,22.19
2022-07-29T04:22:00.162Z,22.27
2022-07-29T04:23:05.647Z,22.38
2022-07-29T04:24:09.608Z,22.48
2022-07-29T04:25:14.019Z,22.44
2022-07-29T04:26:22.850Z,22.48
2022-07-29T04:27:30.293Z,22.68
2022-07-29T04:28:34.556Z,23.17
2022-07-29T04:29:37.898Z,23.70
2022-07-29T04:30:43.206Z,23.90
2022-07-29T04:31:46.722Z,23.89
2022-07-29T04:32:50.565Z,24.31
2022-07-29T04:33:55.464Z,24.84
2022-07-29T04:35:00.082Z,26.27
2022-07-29T04:36:04.209Z,28.29
2022-07-29T04:37:08.579Z,29.74
2022-07-29T04:38:15.795Z,30.58
2022-07-29T04:39:22.959Z,31.66
2022-07-29T04:40:25.984Z,32.46
2022-07-29T04:41:33.288Z,33.46
2022-07-29T04:42:36.413Z,33.46
2022-07-29T04:43:41.910Z,34.19
2022-07-29T04:44:45.660Z,34.78
2022-07-29T04:45:50.340Z,35.11
2022-07-29T04:46:55.241Z,35.38
2022-07-29T04:49:14.513Z,36.50
2022-07-29T04:50:20.358Z,36.65
2022-07-29T04:51:25.612Z,36.88
2022-07-29T04:52:44.037Z,36.91
2022-07-29T04:53:47.627Z,37.15
2022-07-29T04:54:51.150Z,37.20
2022-07-29T04:55:54.721Z,36.69
2022-07-29T04:56:59.372Z,36.95
2022-07-29T04:58:01.697Z,36.84
2022-07-29T04:59:07.154Z,36.90
2022-07-29T05:01:25.393Z,37.20
2022-07-29T05:02:29.151Z,37.22
2022-07-29T05:03:33.042Z,36.89
2022-07-29T05:04:36.794Z,37.43
2022-07-29T05:05:40.259Z,37.30
2022-07-29T05:06:43.902Z,37.59
2022-07-29T05:07:48.209Z,37.39
2022-07-29T05:08:51.749Z,38.09
2022-07-29T05:09:56.406Z,38.52
2022-07-29T05:11:11.650Z,37.95
2022-07-29T05:12:07.408Z,37.53
2022-07-29T05:13:11.102Z,36.83
2022-07-29T05:14:22.284Z,37.08
2022-07-29T05:15:27.615Z,37.37
2022-07-29T05:16:31.117Z,37.40
2022-07-29T05:17:36.606Z,37.72
2022-07-29T05:18:40.760Z,37.92
2022-07-29T05:19:45.274Z,38.16
2022-07-29T05:20:48.127Z,38.03
2022-07-29T05:21:54.385Z,38.65
2022-07-29T05:22:59.878Z,39.22
2022-07-29T05:24:02.898Z,38.97
2022-07-29T05:25:13.362Z,39.77
2022-07-29T05:26:17.562Z,39.62
2022-07-29T05:27:21.332Z,39.31
2022-07-29T05:28:31.606Z,38.97
2022-07-29T05:29:43.983Z,39.62
2022-07-29T05:30:42.372Z,39.37
2022-07-29T05:31:47.271Z,39.78
2022-07-29T05:32:51.852Z,40.07
2022-07-29T05:33:58.492Z,39.62
2022-07-29T05:35:02.209Z,39.72
2022-07-29T05:36:08.592Z,40.16
2022-07-29T05:37:12.294Z,40.33
2022-07-29T05:38:17.350Z,40.01
2022-07-29T05:39:22.180Z,39.97
2022-07-29T05:40:26.526Z,40.15
2022-07-29T05:41:38.856Z,40.27
2022-07-29T05:42:42.728Z,39.61
2022-07-29T05:43:46.330Z,39.86
2022-07-29T05:44:51.192Z,39.81
2022-07-29T05:45:56.301Z,39.47
2022-07-29T05:47:02.822Z,39.88
2022-07-29T05:48:10.229Z,40.16
2022-07-29T05:49:26.965Z,39.76
2022-07-29T05:50:22.011Z,40.06
2022-07-29T05:51:27.076Z,40.14
2022-07-29T05:52:30.667Z,40.39
2022-07-29T05:53:36.679Z,40.38
2022-07-29T05:54:45.773Z,39.75
2022-07-29T05:55:53.854Z,39.56
2022-07-29T05:56:58.372Z,39.29
2022-07-29T05:58:03.406Z,39.44
2022-07-29T05:59:06.913Z,40.17
2022-07-29T06:00:14.505Z,39.92
2022-07-29T06:01:18.385Z,40.25
2022-07-29T06:02:22.157Z,40.73
2022-07-29T06:03:25.974Z,40.66
2022-07-29T06:04:30.014Z,40.51
2022-07-29T06:05:33.823Z,40.56
2022-07-29T06:06:40.591Z,40.78
2022-07-29T06:07:50.191Z,39.82
2022-07-29T06:08:50.039Z,37.55
2022-07-29T06:09:53.568Z,37.00
2022-07-29T06:10:57.653Z,36.88
2022-07-29T06:12:00.595Z,36.59
2022-07-29T06:13:04.538Z,36.12
2022-07-29T06:14:11.107Z,35.96
2022-07-29T06:15:14.768Z,35.66
2022-07-29T06:16:26.168Z,35.43
2022-07-29T06:17:25.328Z,35.75
2022-07-29T06:18:28.105Z,35.95
2022-07-29T06:19:31.948Z,35.28
2022-07-29T06:20:37.261Z,35.50
2022-07-29T06:21:46.347Z,34.77
2022-07-29T06:22:51.762Z,35.03
2022-07-29T06:23:55.271Z,35.84
2022-07-29T06:25:04.487Z,36.69
2022-07-29T06:26:07.958Z,37.45
2022-07-29T06:28:28.498Z,38.15
2022-07-29T06:29:33.833Z,38.20
2022-07-29T06:30:37.212Z,38.93
2022-07-29T06:31:42.282Z,39.99
2022-07-29T06:32:44.898Z,39.99
2022-07-29T06:33:48.539Z,40.08
2022-07-29T06:35:24.516Z,40.40
2022-07-29T06:36:05.678Z,39.81
2022-07-29T06:37:11.236Z,40.13
2022-07-29T06:38:33.866Z,40.89
2022-07-29T06:39:21.996Z,41.03
2022-07-29T06:41:52.178Z,40.19
2022-07-29T06:42:57.518Z,40.93
2022-07-29T06:44:00.145Z,41.90
2022-07-29T06:45:08.999Z,41.54
2022-07-29T06:46:12.539Z,42.30
2022-07-29T06:47:17.006Z,42.89
2022-07-29T06:48:21.018Z,42.79
2022-07-29T06:49:25.399Z,42.51
2022-07-29T06:50:30.032Z,42.91
2022-07-29T06:51:33.353Z,42.94
2022-07-29T06:52:36.715Z,43.05
2022-07-29T06:53:58.182Z,43.31
2022-07-29T06:54:49.616Z,42.75
2022-07-29T06:56:08.097Z,42.53
2022-07-29T06:57:14.353Z,41.75
2022-07-29T06:58:19.699Z,41.31
2022-07-29T06:59:33.419Z,41.19
2022-07-29T07:00:33.284Z,40.82
2022-07-29T07:01:40.495Z,40.60
2022-07-29T07:02:46.973Z,40.94
2022-07-29T07:03:50.140Z,42.19
2022-07-29T07:04:54.106Z,41.81
2022-07-29T07:06:00.246Z,42.73
2022-07-29T07:07:07.168Z,42.14
2022-07-29T07:08:12.624Z,42.00
2022-07-29T07:09:15.956Z,41.55
2022-07-29T07:10:28.778Z,42.04
2022-07-29T07:11:32.743Z,41.86
2022-07-29T07:12:37.645Z,42.52
2022-07-29T07:13:42.813Z,42.90
2022-07-29T07:14:46.251Z,42.52
2022-07-29T07:15:54.342Z,42.38
2022-07-29T07:16:55.649Z,42.34
2022-07-29T07:17:59.867Z,42.29
2022-07-29T07:19:04.962Z,42.59
2022-07-29T07:20:12.328Z,41.67
2022-07-29T07:21:19.302Z,41.83
2022-07-29T07:22:23.355Z,41.52
2022-07-29T07:23:34.415Z,41.40
2022-07-29T07:24:38.828Z,41.64
2022-07-29T07:25:42.389Z,42.54
2022-07-29T07:26:49.114Z,42.93
2022-07-29T07:27:57.847Z,43.08
2022-07-29T07:29:05.230Z,42.97
2022-07-29T07:30:10.698Z,43.32
2022-07-29T07:31:13.962Z,41.89
2022-07-29T07:32:22.361Z,41.86
2022-07-29T07:33:26.501Z,41.91
2022-07-29T07:34:30.931Z,41.61
2022-07-29T07:35:34.870Z,41.67
2022-07-29T07:36:38.894Z,42.26
2022-07-29T07:37:46.378Z,42.23
2022-07-29T07:38:50.093Z,42.15
2022-07-29T07:40:01.564Z,41.45
2022-07-29T07:41:05.259Z,42.27
2022-07-29T07:42:30.404Z,42.87
2022-07-29T07:43:34.188Z,41.78
2022-07-29T07:44:57.293Z,42.57
2022-07-29T07:45:42.487Z,41.94
2022-07-29T07:46:46.061Z,41.90
2022-07-29T07:47:48.834Z,42.10
2022-07-29T07:48:55.193Z,41.33
2022-07-29T07:49:58.702Z,41.22
2022-07-29T07:51:02.271Z,41.24
2022-07-29T07:52:07.135Z,41.16
2022-07-29T07:53:18.321Z,40.83
2022-07-29T07:54:22.189Z,40.33
2022-07-29T07:55:26.364Z,40.60
2022-07-29T07:56:35.455Z,40.25
2022-07-29T07:57:39.174Z,40.46
2022-07-29T07:58:43.305Z,40.77
2022-07-29T07:59:48.337Z,40.58
2022-07-29T08:00:51.663Z,39.72
2022-07-29T08:01:56.621Z,39.78
2022-07-29T08:02:59.508Z,39.61
2022-07-29T08:04:02.989Z,39.43
2022-07-29T08:06:23.252Z,39.00
2022-07-29T08:07:27.025Z,38.55
2022-07-29T08:08:29.571Z,38.24
2022-07-29T08:09:34.370Z,37.96
2022-07-29T08:10:57.207Z,37.99
2022-07-29T08:12:02.890Z,37.99
2022-07-29T08:13:07.932Z,37.59
2022-07-29T08:14:14.490Z,37.72
2022-07-29T08:15:17.637Z,38.13
2022-07-29T08:16:21.973Z,38.58
2022-07-29T08:17:26.539Z,37.96
2022-07-29T08:18:32.353Z,37.80
2022-07-29T08:19:36.058Z,37.43
2022-07-29T08:20:41.223Z,37.43
2022-07-29T08:21:44.782Z,37.41
2022-07-29T08:22:48.808Z,37.84
2022-07-29T08:24:01.823Z,38.01
2022-07-29T08:25:03.758Z,37.73
2022-07-29T08:26:10.155Z,36.95
2022-07-29T08:27:40.775Z,37.38
2022-07-29T08:28:20.904Z,36.84
2022-07-29T08:30:39.867Z,36.30
2022-07-29T08:31:44.044Z,35.87
2022-07-29T08:32:54.881Z,36.20
2022-07-29T08:34:04.763Z,36.46
2022-07-29T08:35:10.958Z,36.47
2022-07-29T08:36:16.091Z,36.56
2022-07-29T08:37:19.976Z,36.95
2022-07-29T08:38:23.936Z,35.94
2022-07-29T08:39:27.422Z,35.89
2022-07-29T08:40:34.605Z,36.25
2022-07-29T08:41:39.219Z,36.32
2022-07-29T08:42:42.729Z,36.73
2022-07-29T08:43:49.919Z,36.75
2022-07-29T08:44:56.043Z,36.35
2022-07-29T08:46:02.715Z,36.60
2022-07-29T08:47:06.969Z,36.09
2022-07-29T08:48:17.248Z,35.85
2022-07-29T08:49:21.260Z,35.83
2022-07-29T08:50:28.960Z,35.85
2022-07-29T08:51:35.275Z,35.65
2022-07-29T08:52:44.003Z,36.05
2022-07-29T08:53:53.342Z,36.00
2022-07-29T08:54:57.035Z,36.71
2022-07-29T08:56:00.400Z,37.26
2022-07-29T08:57:04.692Z,37.05
2022-07-29T08:58:11.152Z,36.70
2022-07-29T08:59:14.818Z,36.31
2022-07-29T09:00:18.749Z,35.77
2022-07-29T09:01:36.548Z,35.48
2022-07-29T09:02:39.354Z,35.62
2022-07-29T09:03:45.917Z,35.72
2022-07-29T09:04:51.112Z,35.94
2022-07-29T09:07:12.403Z,36.63
2022-07-29T09:08:17.226Z,36.44
2022-07-29T09:09:21.581Z,36.91
2022-07-29T09:10:26.142Z,37.11
2022-07-29T09:11:30.207Z,37.05
2022-07-29T09:12:37.962Z,37.25
2022-07-29T09:13:42.076Z,37.30
2022-07-29T09:14:46.605Z,37.11
2022-07-29T09:15:50.594Z,37.27
2022-07-29T09:17:00.113Z,36.81
2022-07-29T09:18:07.631Z,36.81
2022-07-29T09:20:57.248Z,37.33
2022-07-29T09:22:03.836Z,36.96
2022-07-29T09:23:09.869Z,36.69
2022-07-29T09:24:16.443Z,36.63
2022-07-29T09:25:42.605Z,36.62
2022-07-29T09:26:47.685Z,36.60
2022-07-29T09:27:51.394Z,36.34
2022-07-29T09:28:57.906Z,36.53
2022-07-29T09:30:04.024Z,36.13
2022-07-29T09:31:09.557Z,36.59
2022-07-29T09:32:13.774Z,36.40
2022-07-29T09:33:17.488Z,36.25
2022-07-29T09:34:40.789Z,35.41
2022-07-29T09:35:56.361Z,35.03
2022-07-29T09:36:53.369Z,35.19
2022-07-29T09:37:58.590Z,36.09
2022-07-29T09:39:04.672Z,36.52
2022-07-29T09:40:18.234Z,36.46
2022-07-29T09:42:40.009Z,36.21
2022-07-29T09:43:49.750Z,36.22
2022-07-29T09:44:53.739Z,36.01
2022-07-29T09:45:57.176Z,36.11
2022-07-29T09:47:10.382Z,36.56
2022-07-29T09:48:25.217Z,36.11
2022-07-29T09:49:27.950Z,36.02
2022-07-29T09:50:42.600Z,36.26
2022-07-29T09:51:46.730Z,36.06
2022-07-29T09:52:54.029Z,35.70
2022-07-29T09:53:59.383Z,35.31
2022-07-29T09:55:07.521Z,35.39
2022-07-29T09:56:12.031Z,35.48
2022-07-29T09:57:37.797Z,35.27
2022-07-29T09:58:44.632Z,35.13
2022-07-29T09:59:59.662Z,35.43
2022-07-29T10:01:03.647Z,35.97
2022-07-29T10:02:16.727Z,36.32
2022-07-29T10:03:26.293Z,36.28
2022-07-29T10:04:41.234Z,35.98
2022-07-29T10:05:46.776Z,35.85
2022-07-29T10:07:07.170Z,35.39
2022-07-29T10:08:16.526Z,35.39
2022-07-29T10:09:19.240Z,35.30
2022-07-29T10:11:49.181Z,35.38
2022-07-29T10:12:54.452Z,35.00
2022-07-29T10:13:59.706Z,34.83
2022-07-29T10:15:05.757Z,35.25
2022-07-29T10:16:11.069Z,35.49
2022-07-29T10:17:14.730Z,35.58
2022-07-29T10:18:23.812Z,35.83
2022-07-29T10:19:34.357Z,35.74
2022-07-29T10:20:41.814Z,35.53
2022-07-29T10:21:45.806Z,35.86
2022-07-29T10:22:54.702Z,35.11
2022-07-29T10:24:04.221Z,35.20
2022-07-29T10:25:11.839Z,34.79
2022-07-29T10:26:18.237Z,34.39
2022-07-29T10:27:21.363Z,34.48
2022-07-29T10:28:26.477Z,35.36
2022-07-29T10:29:39.896Z,35.67
2022-07-29T10:30:47.334Z,35.14
2022-07-29T10:32:28.116Z,34.66
2022-07-29T10:35:13.173Z,34.43
2022-07-29T10:36:36.100Z,34.32
2022-07-29T10:37:59.427Z,34.60
2022-07-29T10:39:22.330Z,34.49
2022-07-29T10:40:52.876Z,34.73
2022-07-29T10:42:16.954Z,34.51
2022-07-29T10:43:25.791Z,34.40
2022-07-29T10:44:31.265Z,33.95
2022-07-29T10:45:35.609Z,33.77
2022-07-29T10:46:42.879Z,33.76
2022-07-29T10:47:46.375Z,33.72
2022-07-29T10:49:15.315Z,33.38
2022-07-29T10:50:18.496Z,33.23
2022-07-29T10:51:25.124Z,33.14
2022-07-29T10:52:56.935Z,33.13
2022-07-29T10:54:01.966Z,33.15
2022-07-29T10:55:07.004Z,33.12
2022-07-29T10:57:53.569Z,33.76
2022-07-29T10:59:25.609Z,33.21
2022-07-29T11:00:33.152Z,32.95
2022-07-29T11:01:39.298Z,33.11
2022-07-29T11:02:46.433Z,33.32
2022-07-29T11:03:57.222Z,33.45
2022-07-29T11:05:15.442Z,33.45
2022-07-29T11:06:26.848Z,33.49
2022-07-29T11:07:42.650Z,33.41
2022-07-29T11:08:36.733Z,33.39
2022-07-29T11:09:43.875Z,33.24
2022-07-29T11:10:56.099Z,33.26
2022-07-29T11:12:04.074Z,33.33
2022-07-29T11:13:07.788Z,33.33
2022-07-29T11:14:10.682Z,33.20
2022-07-29T11:15:20.680Z,33.14
2022-07-29T11:17:47.260Z,32.71
2022-07-29T11:18:38.114Z,32.48
2022-07-29T11:19:51.992Z,32.43
2022-07-29T11:20:54.160Z,32.64
2022-07-29T11:22:00.110Z,32.57
2022-07-29T11:23:22.406Z,32.23
2022-07-29T11:24:35.369Z,32.20
2022-07-29T11:25:42.830Z,32.12
2022-07-29T11:27:54.202Z,32.42
2022-07-29T11:29:09.001Z,32.37
2022-07-29T11:30:14.527Z,32.52
2022-07-29T11:31:40.514Z,32.63
2022-07-29T11:32:48.765Z,32.99
2022-07-29T11:33:56.889Z,32.83
2022-07-29T11:35:38.123Z,32.74
2022-07-29T11:36:36.791Z,32.91
2022-07-29T11:37:42.546Z,32.96
2022-07-29T11:38:47.885Z,33.32
2022-07-29T11:40:01.976Z,33.34
2022-07-29T11:41:27.426Z,33.44
2022-07-29T11:42:42.015Z,33.37
2022-07-29T11:43:52.838Z,33.43
2022-07-29T11:45:08.444Z,33.33
2022-07-29T11:46:09.228Z,33.52
2022-07-29T11:47:14.297Z,33.71
2022-07-29T11:48:28.069Z,33.75
2022-07-29T11:49:31.602Z,33.38
2022-07-29T11:50:44.364Z,33.39
2022-07-29T11:51:49.161Z,32.97
2022-07-29T11:52:56.787Z,33.13
2022-07-29T11:54:05.304Z,33.09
2022-07-29T11:55:11.984Z,33.35
2022-07-29T11:56:19.890Z,33.43
2022-07-29T11:57:35.954Z,33.33
2022-07-29T11:58:34.469Z,33.39
2022-07-29T11:59:43.305Z,33.36
2022-07-29T12:00:48.454Z,33.47
2022-07-29T12:27:29.382Z,32.11
2022-07-29T12:30:03.986Z,32.18
2022-07-29T12:31:08.503Z,32.14
2022-07-29T12:32:14.412Z,32.00
2022-07-29T12:33:32.275Z,32.15
2022-07-29T12:34:37.662Z,32.36
2022-07-29T12:35:41.985Z,32.47
2022-07-29T12:36:46.179Z,32.43
2022-07-29T12:37:53.287Z,32.62
2022-07-29T12:39:05.552Z,32.96
2022-07-29T12:40:13.933Z,33.13
2022-07-29T12:41:18.063Z,33.09
2022-07-29T12:42:20.729Z,33.00
2022-07-29T12:43:28.152Z,32.93
2022-07-29T12:44:48.996Z,32.88
2022-07-29T12:45:57.251Z,33.03
2022-07-29T12:47:04.903Z,32.69
2022-07-29T12:48:13.386Z,32.71
2022-07-29T12:49:23.360Z,32.93
2022-07-29T12:50:29.237Z,32.98
2022-07-29T12:51:38.842Z,33.10
2022-07-29T12:52:43.464Z,33.16
2022-07-29T12:54:09.391Z,32.85
2022-07-29T12:55:12.653Z,32.49
2022-07-29T12:56:41.766Z,32.63
2022-07-29T12:57:26.511Z,32.90
2022-07-29T12:58:38.164Z,33.05
2022-07-29T12:59:41.831Z,33.18
2022-07-29T13:00:45.633Z,33.23
2022-07-29T13:01:53.681Z,33.24
2022-07-29T13:02:59.668Z,32.92
2022-07-29T13:04:07.621Z,32.87
2022-07-29T13:05:14.523Z,32.69
2022-07-29T13:06:42.116Z,32.37
2022-07-29T13:07:55.483Z,32.51
2022-07-29T13:09:07.005Z,32.63
2022-07-29T13:10:13.966Z,32.78
2022-07-29T13:11:36.581Z,32.52
2022-07-29T13:12:40.962Z,32.34
2022-07-29T13:14:06.873Z,32.27
2022-07-29T13:15:00.095Z,32.45
2022-07-29T13:16:10.338Z,32.58
2022-07-29T13:17:19.609Z,32.47
2022-07-29T13:18:39.534Z,32.46
2022-07-29T13:19:48.678Z,32.65
2022-07-29T13:20:52.509Z,32.87
2022-07-29T13:21:56.865Z,32.75
2022-07-29T13:23:03.320Z,32.56
2022-07-29T13:24:11.157Z,32.69
2022-07-29T13:25:15.393Z,32.64
2022-07-29T13:26:21.442Z,32.73
2022-07-29T13:27:31.945Z,32.70
2022-07-29T13:28:38.418Z,32.61
2022-07-29T13:29:41.112Z,32.39
2022-07-29T13:30:45.396Z,32.37
2022-07-29T13:31:49.028Z,32.55
2022-07-29T13:34:15.974Z,32.54
2022-07-29T13:35:21.833Z,32.53
2022-07-29T13:36:29.973Z,32.63
2022-07-29T13:37:38.422Z,32.52
2022-07-29T13:39:54.019Z,32.40
2022-07-29T13:41:01.288Z,32.49
2022-07-29T13:42:10.754Z,32.48
2022-07-29T13:43:13.251Z,32.49
2022-07-29T13:44:16.812Z,32.58
2022-07-29T13:45:20.492Z,32.55
2022-07-29T13:46:27.658Z,32.47
2022-07-29T13:47:32.206Z,32.40
2022-07-29T13:48:36.308Z,32.26
2022-07-29T13:49:43.318Z,32.40
2022-07-29T13:50:52.634Z,32.48
2022-07-29T13:51:59.262Z,32.71
2022-07-29T13:53:06.432Z,32.73
2022-07-29T13:54:09.281Z,32.49
2022-07-29T13:55:13.519Z,32.18
2022-07-29T13:56:18.822Z,32.04
2022-07-29T13:57:26.900Z,32.01
2022-07-29T13:58:30.808Z,32.09
2022-07-29T13:59:34.610Z,32.11
2022-07-29T14:00:45.141Z,32.01
2022-07-29T14:01:50.661Z,31.84
2022-07-29T14:02:54.031Z,31.72
2022-07-29T14:03:57.721Z,31.65
2022-07-29T14:05:04.941Z,31.71
2022-07-29T14:06:06.916Z,31.73
2022-07-29T14:07:11.397Z,31.50
2022-07-29T14:08:16.843Z,31.37
2022-07-29T14:09:19.672Z,31.47
2022-07-29T14:10:22.551Z,31.43
2022-07-29T14:11:25.650Z,31.39
2022-07-29T14:12:28.312Z,31.42
2022-07-29T14:13:31.840Z,31.51
2022-07-29T14:14:38.862Z,31.42
2022-07-29T14:15:43.443Z,31.45
2022-07-29T14:16:52.456Z,31.51
2022-07-29T14:17:56.429Z,31.76
2022-07-29T14:19:00.399Z,31.70
2022-07-29T14:20:08.863Z,31.91
2022-07-29T14:21:14.364Z,31.82
2022-07-29T14:22:25.463Z,31.89
2022-07-29T14:23:29.307Z,31.97
2022-07-29T14:24:32.920Z,32.17
2022-07-29T14:25:38.658Z,32.19
2022-07-29T14:26:43.077Z,32.22
2022-07-29T14:27:48.383Z,32.40
2022-07-29T14:29:01.706Z,32.07
2022-07-29T14:30:07.819Z,32.13
2022-07-29T14:31:14.079Z,32.28
2022-07-29T14:32:17.607Z,32.18
2022-07-29T14:33:22.400Z,31.89
2022-07-29T14:34:25.085Z,31.90
2022-07-29T14:35:28.761Z,31.93
2022-07-29T14:36:36.340Z,32.18
2022-07-29T14:37:40.550Z,32.15
2022-07-29T14:38:44.460Z,32.15
2022-07-29T14:39:47.134Z,32.14
2022-07-29T14:40:50.868Z,31.98
2022-07-29T14:41:55.308Z,32.07
2022-07-29T14:43:01.080Z,32.06
2022-07-29T14:44:06.613Z,32.14
2022-07-29T14:45:11.953Z,32.04
2022-07-29T14:46:15.816Z,31.91
2022-07-29T14:47:19.256Z,31.99
2022-07-29T14:48:23.663Z,31.89
2022-07-29T14:49:31.386Z,32.05
2022-07-29T14:50:34.698Z,32.01
2022-07-29T14:51:42.588Z,32.13
2022-07-29T14:52:45.414Z,31.99
2022-07-29T14:53:53.343Z,31.91
2022-07-29T14:54:58.745Z,31.89
2022-07-29T14:56:21.261Z,31.73
2022-07-29T14:57:15.018Z,31.66
2022-07-29T14:58:18.808Z,31.70
2022-07-29T14:59:25.819Z,31.74
2022-07-29T15:00:34.752Z,31.85
2022-07-29T15:01:38.051Z,31.79
2022-07-29T15:03:02.323Z,31.94
2022-07-29T15:03:50.007Z,31.87
2022-07-29T15:04:54.813Z,31.93
2022-07-29T15:06:02.390Z,31.70
2022-07-29T15:07:06.072Z,31.64
2022-07-29T15:08:09.884Z,31.45
2022-07-29T15:10:31.065Z,31.47
2022-07-29T15:11:38.314Z,31.24
2022-07-29T15:12:43.180Z,31.27
2022-07-29T15:13:49.394Z,31.27
2022-07-29T15:14:53.061Z,31.33
2022-07-29T15:16:00.017Z,31.45
2022-07-29T15:17:03.407Z,31.24
2022-07-29T15:19:20.796Z,31.09
2022-07-29T15:20:27.538Z,30.80
2022-07-29T15:21:32.051Z,30.76
2022-07-29T15:22:35.866Z,30.75
2022-07-29T15:23:40.311Z,30.70
2022-07-29T15:24:44.641Z,30.92
2022-07-29T15:27:00.297Z,31.35
2022-07-29T15:28:09.097Z,31.30
2022-07-29T15:29:15.140Z,31.22
2022-07-29T15:30:31.516Z,31.15
2022-07-29T15:31:26.773Z,31.16
2022-07-29T15:32:33.253Z,31.18
2022-07-29T15:33:38.390Z,31.07
2022-07-29T15:34:41.826Z,31.02
2022-07-29T15:35:45.503Z,30.85
2022-07-29T15:36:53.334Z,30.80
2022-07-29T15:37:58.291Z,30.83
2022-07-29T15:39:03.211Z,30.91
2022-07-29T15:40:08.821Z,30.95
2022-07-29T15:41:18.178Z,30.94
2022-07-29T15:42:23.094Z,30.98
2022-07-29T15:43:26.932Z,30.97
2022-07-29T15:44:30.778Z,30.95
2022-07-29T15:45:41.065Z,30.86
2022-07-29T15:47:08.741Z,30.67
2022-07-29T15:48:14.794Z,30.74
2022-07-29T15:49:19.749Z,30.76